SAB404 LKPR-LRTR
Flight info
| Callsign | SAB404 |
|---|---|
| Flight time | N/A |
| Altitude | 37000 |
| Route | VOZ4B/30 VOZ DCT NELPA DCT PISAM DCT PESAT DCT BUG DCT TEGRI |
| Aircraft | B737/M-SDE2E3FGHIRWXY/LB1 |
Departure
| Time | N/A |
|---|---|
| Airport | Václav Havel Airport Prague (LKPR) |
Arrival
| Time | 2026-04-24 19:08 |
|---|---|
| Airport | Timișoara Traian Vuia International Airport (LRTR) |
| Time | Latitude | Longitude | Altitude | Speed | Heading |
|---|---|---|---|---|---|
| 2026-04-24 18:54 | 45.93866 | 21.24523 | 7995 ft | 242 kts | 105° |
| 2026-04-24 18:55 | 45.92798 | 21.29016 | 7945 ft | 236 kts | 108° |
| 2026-04-24 18:55 | 45.92246 | 21.31235 | 7716 ft | 235 kts | 108° |
| 2026-04-24 18:55 | 45.91696 | 21.33438 | 7412 ft | 234 kts | 108° |
| 2026-04-24 18:56 | 45.91133 | 21.35687 | 7101 ft | 245 kts | 108° |
| 2026-04-24 18:56 | 45.90557 | 21.37983 | 6798 ft | 250 kts | 108° |
| 2026-04-24 18:56 | 45.89962 | 21.40351 | 6486 ft | 252 kts | 108° |
| 2026-04-24 18:56 | 45.89367 | 21.42717 | 6174 ft | 251 kts | 108° |
| 2026-04-24 18:57 | 45.88775 | 21.45063 | 5854 ft | 249 kts | 108° |
| 2026-04-24 18:57 | 45.88186 | 21.47404 | 5537 ft | 247 kts | 108° |
| 2026-04-24 18:57 | 45.87602 | 21.49713 | 5230 ft | 245 kts | 109° |
| 2026-04-24 18:57 | 45.87023 | 21.52004 | 4920 ft | 243 kts | 109° |
| 2026-04-24 18:58 | 45.86449 | 21.54276 | 4609 ft | 241 kts | 109° |
| 2026-04-24 18:58 | 45.85880 | 21.56524 | 4299 ft | 239 kts | 109° |
| 2026-04-24 18:58 | 45.85314 | 21.58758 | 4050 ft | 235 kts | 109° |
| 2026-04-24 18:58 | 45.84760 | 21.60943 | 4022 ft | 236 kts | 109° |
| 2026-04-24 18:59 | 45.84192 | 21.63181 | 4010 ft | 236 kts | 109° |
| 2026-04-24 18:59 | 45.83636 | 21.65368 | 4009 ft | 236 kts | 109° |
| 2026-04-24 18:59 | 45.83073 | 21.67583 | 4005 ft | 236 kts | 109° |
| 2026-04-24 18:59 | 45.82508 | 21.69803 | 4007 ft | 236 kts | 109° |
| 2026-04-24 19:00 | 45.81943 | 21.72017 | 4011 ft | 236 kts | 109° |
| 2026-04-24 19:00 | 45.81274 | 21.74163 | 3980 ft | 238 kts | 122° |
| 2026-04-24 19:00 | 45.80000 | 21.75624 | 3996 ft | 237 kts | 154° |
| 2026-04-24 19:00 | 45.78408 | 21.75891 | 4004 ft | 225 kts | 187° |
| 2026-04-24 19:01 | 45.77066 | 21.74940 | 3951 ft | 215 kts | 218° |
| 2026-04-24 19:01 | 45.76076 | 21.73388 | 3689 ft | 207 kts | 233° |
| 2026-04-24 19:01 | 45.75314 | 21.71651 | 3323 ft | 204 kts | 242° |
| 2026-04-24 19:01 | 45.74654 | 21.69852 | 2949 ft | 203 kts | 243° |
| 2026-04-24 19:02 | 45.74221 | 21.68677 | 2723 ft | 199 kts | 243° |
| 2026-04-24 19:02 | 45.73388 | 21.66453 | 2524 ft | 181 kts | 244° |
| 2026-04-24 19:02 | 45.73231 | 21.64720 | 2518 ft | 175 kts | 273° |
| 2026-04-24 19:02 | 45.73503 | 21.63031 | 2523 ft | 174 kts | 288° |
| 2026-04-24 19:03 | 45.73952 | 21.61425 | 2524 ft | 174 kts | 293° |
| 2026-04-24 19:03 | 45.74408 | 21.59819 | 2519 ft | 174 kts | 292° |
| 2026-04-24 19:03 | 45.74838 | 21.58200 | 2518 ft | 174 kts | 291° |
| 2026-04-24 19:03 | 45.75253 | 21.56580 | 2515 ft | 173 kts | 291° |
| 2026-04-24 19:04 | 45.75662 | 21.54958 | 2518 ft | 173 kts | 290° |
| 2026-04-24 19:04 | 45.75931 | 21.53885 | 2517 ft | 173 kts | 290° |
| 2026-04-24 19:04 | 45.76338 | 21.52261 | 2517 ft | 173 kts | 290° |
| 2026-04-24 19:04 | 45.76744 | 21.50643 | 2501 ft | 173 kts | 290° |
| 2026-04-24 19:05 | 45.77154 | 21.49014 | 2317 ft | 173 kts | 290° |
| 2026-04-24 19:05 | 45.77559 | 21.47404 | 2111 ft | 170 kts | 290° |
| 2026-04-24 19:05 | 45.77964 | 21.45797 | 1900 ft | 172 kts | 290° |
| 2026-04-24 19:05 | 45.78357 | 21.44234 | 1650 ft | 157 kts | 290° |
| 2026-04-24 19:06 | 45.78712 | 21.42820 | 1399 ft | 145 kts | 290° |
| 2026-04-24 19:06 | 45.79044 | 21.41500 | 1195 ft | 134 kts | 290° |
| 2026-04-24 19:06 | 45.79351 | 21.40281 | 1025 ft | 131 kts | 290° |
| 2026-04-24 19:06 | 45.79658 | 21.39061 | 873 ft | 130 kts | 290° |
| 2026-04-24 19:07 | 45.79964 | 21.37845 | 693 ft | 129 kts | 290° |
| 2026-04-24 19:07 | 45.80269 | 21.36634 | 514 ft | 127 kts | 290° |
| 2026-04-24 19:07 | 45.80570 | 21.35448 | 360 ft | 122 kts | 291° |
| 2026-04-24 19:07 | 45.80815 | 21.34470 | 359 ft | 94 kts | 288° |
| 2026-04-24 19:08 | 45.81016 | 21.33660 | 359 ft | 70 kts | 291° |
| 2026-04-24 19:08 | 45.81165 | 21.33077 | 359 ft | 61 kts | 289° |
| 2026-04-24 19:08 | 45.81297 | 21.32537 | 359 ft | 48 kts | 290° |
| 2026-04-24 19:08 | 45.81373 | 21.32231 | 359 ft | 20 kts | 282° |
| 2026-04-24 19:09 | 45.81310 | 21.32114 | 359 ft | 17 kts | 193° |
| 2026-04-24 19:09 | 45.81286 | 21.32106 | 359 ft | 0 kts | 195° |
| 2026-04-24 19:09 | 45.81278 | 21.32103 | 359 ft | 3 kts | 195° |
| 2026-04-24 19:09 | 45.81272 | 21.32100 | 359 ft | 2 kts | 195° |
| 2026-04-24 19:10 | 45.81269 | 21.32099 | 359 ft | 0 kts | 195° |
| 2026-04-24 19:10 | 45.81265 | 21.32098 | 359 ft | 0 kts | 195° |
| 2026-04-24 19:10 | 45.81230 | 21.32083 | 359 ft | 9 kts | 200° |
| 2026-04-24 19:11 | 45.81171 | 21.32051 | 359 ft | 5 kts | 212° |
| 2026-04-24 19:11 | 45.81116 | 21.32003 | 359 ft | 10 kts | 190° |
| 2026-04-24 19:11 | 45.81104 | 21.32000 | 359 ft | 0 kts | 189° |